createdAt,value
2023-05-15T00:01:32.662Z,100.00
2023-05-15T00:03:59.451Z,100.00
2023-05-15T00:06:26.418Z,100.00
2023-05-15T00:08:53.192Z,100.00
2023-05-15T00:11:21.446Z,100.00
2023-05-15T00:13:48.145Z,100.00
2023-05-15T00:16:14.987Z,100.00
2023-05-15T00:18:41.928Z,100.00
2023-05-15T00:21:09.061Z,100.00
2023-05-15T00:23:35.835Z,100.00
2023-05-15T00:26:02.808Z,100.00
2023-05-15T00:28:29.492Z,100.00
2023-05-15T00:30:56.306Z,100.00
2023-05-15T00:33:23.089Z,100.00
2023-05-15T00:35:49.800Z,100.00
2023-05-15T00:38:16.951Z,100.00
2023-05-15T00:40:44.069Z,100.00
2023-05-15T00:43:12.572Z,100.00
2023-05-15T00:45:41.331Z,100.00
2023-05-15T00:48:10.030Z,100.00
2023-05-15T00:50:37.333Z,100.00
2023-05-15T00:53:05.474Z,100.00
2023-05-15T00:55:33.921Z,100.00
2023-05-15T00:58:01.393Z,100.00
2023-05-15T01:00:28.598Z,100.00
2023-05-15T01:02:55.568Z,100.00
2023-05-15T01:05:22.816Z,100.00
2023-05-15T01:08:17.126Z,100.00
2023-05-15T01:10:44.461Z,100.00
2023-05-15T01:13:11.701Z,100.00
2023-05-15T01:15:38.633Z,100.00
2023-05-15T01:18:06.133Z,100.00
2023-05-15T01:20:58.375Z,100.00
2023-05-15T01:23:28.071Z,100.00
2023-05-15T01:26:17.019Z,100.00
2023-05-15T01:28:49.158Z,100.00
2023-05-15T01:31:19.210Z,100.00
2023-05-15T01:33:47.746Z,100.00
2023-05-15T01:36:31.739Z,100.00
2023-05-15T01:39:01.755Z,100.00
2023-05-15T01:41:30.319Z,100.00
2023-05-15T01:44:08.279Z,100.00
2023-05-15T01:46:38.825Z,100.00
2023-05-15T01:49:08.615Z,100.00
2023-05-15T04:45:07.302Z,100.00
2023-05-15T04:47:34.493Z,100.00
2023-05-15T04:50:01.409Z,100.00
2023-05-15T04:52:28.664Z,100.00
2023-05-15T04:54:56.131Z,100.00
2023-05-15T04:57:23.121Z,100.00
2023-05-15T04:59:50.253Z,100.00
2023-05-15T05:02:21.355Z,100.00
2023-05-15T05:04:48.368Z,100.00
2023-05-15T05:07:15.778Z,100.00
2023-05-15T05:09:42.750Z,100.00
2023-05-15T05:12:09.738Z,100.00
2023-05-15T05:14:36.781Z,100.00
2023-05-15T05:17:03.864Z,100.00
2023-05-15T05:19:31.472Z,100.00
2023-05-15T05:22:01.397Z,100.00
2023-05-15T05:24:28.578Z,100.00
2023-05-15T05:26:58.112Z,100.00
2023-05-15T05:29:25.402Z,100.00
2023-05-15T05:31:52.586Z,100.00
2023-05-15T05:34:20.152Z,100.00
2023-05-15T05:36:46.879Z,100.00
2023-05-15T05:39:14.030Z,100.00
2023-05-15T05:41:40.743Z,100.00
2023-05-15T05:44:07.612Z,100.00
2023-05-15T05:46:34.842Z,100.00
2023-05-15T05:49:01.802Z,100.00
2023-05-15T05:51:28.643Z,100.00
2023-05-15T05:53:55.446Z,100.00
2023-05-15T05:56:22.736Z,100.00
2023-05-15T05:58:49.621Z,100.00
2023-05-15T06:01:16.567Z,100.00
2023-05-15T06:03:43.848Z,100.00
2023-05-15T06:06:10.863Z,100.00
2023-05-15T06:08:37.530Z,100.00
2023-05-15T06:11:05.236Z,100.00
2023-05-15T06:13:32.488Z,100.00
2023-05-15T06:15:59.424Z,100.00
2023-05-15T06:18:26.217Z,100.00
2023-05-15T06:20:53.578Z,100.00
2023-05-15T06:23:22.395Z,100.00
2023-05-15T06:25:50.454Z,100.00
2023-05-15T06:28:17.290Z,100.00
2023-05-15T06:30:44.027Z,100.00
2023-05-15T06:33:10.805Z,100.00
2023-05-15T06:35:37.528Z,100.00
2023-05-15T06:38:04.795Z,100.00
2023-05-15T06:40:31.724Z,100.00
2023-05-15T06:42:59.029Z,100.00
2023-05-15T06:45:27.339Z,100.00
2023-05-15T06:47:54.475Z,100.00
2023-05-15T06:50:21.347Z,100.00
2023-05-15T06:52:48.594Z,100.00
2023-05-15T06:55:15.400Z,100.00
2023-05-15T06:57:42.279Z,100.00
2023-05-15T07:00:17.332Z,100.00
2023-05-15T07:02:45.001Z,100.00
2023-05-15T07:05:11.942Z,100.00
2023-05-15T07:07:38.873Z,100.00
2023-05-15T07:10:06.318Z,100.00
2023-05-15T07:12:34.215Z,100.00
2023-05-15T07:15:00.926Z,100.00
2023-05-15T07:17:30.363Z,100.00
2023-05-15T07:19:57.295Z,100.00
2023-05-15T07:22:27.104Z,100.00
2023-05-15T07:24:53.820Z,100.00
2023-05-15T07:27:20.697Z,100.00
2023-05-15T07:29:47.400Z,100.00
2023-05-15T07:32:14.303Z,100.00
2023-05-15T07:34:42.700Z,100.00
2023-05-15T07:37:09.915Z,100.00
2023-05-15T07:39:36.798Z,100.00
2023-05-15T07:42:03.972Z,100.00
2023-05-15T07:44:30.754Z,100.00
2023-05-15T07:46:58.832Z,100.00
2023-05-15T07:49:25.724Z,100.00
2023-05-15T07:51:52.531Z,100.00
2023-05-15T07:54:19.356Z,100.00
2023-05-15T07:56:46.127Z,100.00
2023-05-15T07:59:13.144Z,100.00
2023-05-15T08:01:40.188Z,100.00
2023-05-15T08:04:09.041Z,100.00
2023-05-15T08:06:38.262Z,100.00
2023-05-15T08:09:05.130Z,100.00
2023-05-15T08:11:31.886Z,100.00
2023-05-15T08:13:58.754Z,100.00
2023-05-15T08:16:25.862Z,100.00
2023-05-15T08:18:55.759Z,100.00
2023-05-15T08:21:22.612Z,100.00
2023-05-15T08:23:49.266Z,100.00
2023-05-15T08:26:16.066Z,100.00
2023-05-15T08:28:42.720Z,100.00
2023-05-15T08:31:09.516Z,100.00
2023-05-15T08:33:36.408Z,100.00
2023-05-15T08:36:03.344Z,100.00
2023-05-15T08:38:30.566Z,100.00
2023-05-15T08:40:59.780Z,100.00
2023-05-15T08:43:27.251Z,100.00
2023-05-15T08:45:54.614Z,100.00
2023-05-15T08:48:22.024Z,100.00
2023-05-15T08:50:49.525Z,100.00
2023-05-15T08:53:16.423Z,100.00
2023-05-15T08:55:43.477Z,100.00
2023-05-15T08:58:10.381Z,100.00
2023-05-15T09:00:38.050Z,100.00
2023-05-15T09:03:05.510Z,100.00
2023-05-15T09:05:32.700Z,100.00
2023-05-15T09:08:02.187Z,100.00
2023-05-15T09:10:29.721Z,100.00
2023-05-15T09:12:57.504Z,100.00
2023-05-15T09:15:25.725Z,100.00
2023-05-15T09:17:52.922Z,100.00
2023-05-15T09:20:37.558Z,100.00
2023-05-15T09:23:06.252Z,100.00
2023-05-15T09:25:38.275Z,100.00
2023-05-15T09:28:29.642Z,100.00
2023-05-15T09:31:04.541Z,100.00
2023-05-15T09:33:32.540Z,100.00
2023-05-15T09:35:59.685Z,100.00
2023-05-15T09:38:27.052Z,100.00
2023-05-15T09:41:04.886Z,100.00
2023-05-15T09:43:37.408Z,100.00
2023-05-15T09:46:05.359Z,100.00
2023-05-15T10:05:09.586Z,100.00
2023-05-15T10:07:37.118Z,100.00
2023-05-15T10:10:05.374Z,100.00
2023-05-15T10:12:32.664Z,100.00
2023-05-15T10:15:01.141Z,96.39
2023-05-15T10:17:28.914Z,97.67
2023-05-15T10:19:59.608Z,100.00
2023-05-15T10:22:29.824Z,97.80
2023-05-15T10:25:01.569Z,100.00
2023-05-15T10:27:29.161Z,100.00
2023-05-15T10:29:57.471Z,97.79
2023-05-15T10:32:25.592Z,100.00
2023-05-15T10:34:52.992Z,100.00
2023-05-15T10:37:20.042Z,96.38
2023-05-15T10:39:47.792Z,95.43
2023-05-15T10:42:15.356Z,94.86
2023-05-15T10:44:42.199Z,93.00
2023-05-15T10:47:09.421Z,95.20
2023-05-15T10:49:36.345Z,95.79
2023-05-15T10:52:03.591Z,91.10
2023-05-15T10:54:31.934Z,94.35
2023-05-15T10:56:58.831Z,96.32
2023-05-15T10:59:33.274Z,100.00
2023-05-15T11:02:26.111Z,100.00
2023-05-15T11:04:57.515Z,100.00
2023-05-15T11:07:24.614Z,100.00
2023-05-15T11:09:53.117Z,100.00
2023-05-15T11:12:20.168Z,100.00
2023-05-15T11:14:55.973Z,100.00
2023-05-15T11:17:26.789Z,100.00
2023-05-15T11:19:53.646Z,100.00
2023-05-15T11:22:23.735Z,100.00
2023-05-15T11:24:54.982Z,100.00
2023-05-15T11:27:28.849Z,100.00
2023-05-15T11:30:08.591Z,100.00
2023-05-15T11:32:51.884Z,100.00
2023-05-15T11:35:23.076Z,100.00
2023-05-15T11:37:54.813Z,100.00
2023-05-15T11:40:27.639Z,100.00
2023-05-15T11:43:31.759Z,100.00
2023-05-15T11:46:07.763Z,100.00
2023-05-15T11:48:42.106Z,100.00
2023-05-15T11:51:23.988Z,100.00
2023-05-15T11:53:52.749Z,100.00
2023-05-15T11:56:20.083Z,100.00
2023-05-15T11:58:57.019Z,100.00
2023-05-15T12:01:24.146Z,100.00
2023-05-15T12:03:51.762Z,100.00
2023-05-15T12:06:19.057Z,100.00
2023-05-15T12:08:51.651Z,100.00
2023-05-15T12:11:22.575Z,100.00
2023-05-15T12:13:54.240Z,100.00
2023-05-15T12:16:28.260Z,100.00
2023-05-15T12:18:57.432Z,100.00
2023-05-15T12:21:27.126Z,100.00
2023-05-15T12:26:28.223Z,100.00
2023-05-15T12:28:55.712Z,100.00
2023-05-15T12:31:22.833Z,100.00
2023-05-15T12:33:50.204Z,100.00
2023-05-15T12:36:20.940Z,100.00
2023-05-15T12:38:48.864Z,100.00
2023-05-15T12:41:15.783Z,100.00
2023-05-15T12:43:42.922Z,100.00
2023-05-15T12:46:10.080Z,100.00
2023-05-15T12:48:37.188Z,100.00
2023-05-15T12:51:07.981Z,100.00
2023-05-15T12:53:35.772Z,100.00
2023-05-15T12:56:03.150Z,100.00
2023-05-15T12:58:30.442Z,100.00
2023-05-15T13:00:57.363Z,100.00
2023-05-15T13:03:25.136Z,100.00
2023-05-15T13:05:52.506Z,100.00
2023-05-15T13:08:19.660Z,100.00
2023-05-15T13:10:47.901Z,100.00
2023-05-15T13:13:15.559Z,100.00
2023-05-15T13:15:45.836Z,100.00
2023-05-15T13:18:14.508Z,100.00
2023-05-15T13:20:43.431Z,100.00
2023-05-15T13:23:12.287Z,100.00
2023-05-15T13:25:39.195Z,100.00
2023-05-15T13:28:07.231Z,100.00
2023-05-15T13:30:34.846Z,100.00
2023-05-15T13:33:03.671Z,100.00
2023-05-15T13:35:30.999Z,100.00
2023-05-15T13:37:57.878Z,100.00
2023-05-15T13:40:24.837Z,100.00
2023-05-15T13:42:52.163Z,100.00
2023-05-15T13:45:19.098Z,100.00
2023-05-15T13:47:45.822Z,100.00
2023-05-15T13:50:14.658Z,100.00
2023-05-15T13:52:42.994Z,100.00
2023-05-15T13:55:11.668Z,100.00
2023-05-15T13:57:42.267Z,100.00
2023-05-15T14:00:12.819Z,100.00
2023-05-15T14:02:43.850Z,100.00
2023-05-15T14:05:13.102Z,100.00
2023-05-15T14:07:40.107Z,100.00
2023-05-15T14:10:08.172Z,100.00
2023-05-15T14:12:35.173Z,100.00
2023-05-15T14:15:02.258Z,100.00
2023-05-15T14:17:29.152Z,100.00
2023-05-15T14:19:56.158Z,100.00
2023-05-15T14:22:25.098Z,100.00
2023-05-15T14:24:53.249Z,100.00
2023-05-15T14:27:20.545Z,100.00
2023-05-15T14:29:49.232Z,100.00
2023-05-15T14:32:16.905Z,100.00
2023-05-15T14:34:44.134Z,100.00
2023-05-15T14:37:11.103Z,100.00
2023-05-15T14:39:38.984Z,100.00
2023-05-15T14:42:06.411Z,100.00
2023-05-15T14:44:33.853Z,100.00
2023-05-15T14:47:15.251Z,100.00
2023-05-15T14:49:43.116Z,100.00
2023-05-15T14:52:11.611Z,100.00
2023-05-15T14:54:40.218Z,100.00
2023-05-15T14:57:07.736Z,100.00
2023-05-15T14:59:34.671Z,100.00
2023-05-15T15:02:01.743Z,100.00
2023-05-15T15:04:30.574Z,100.00
2023-05-15T15:06:58.221Z,100.00
2023-05-15T15:09:28.373Z,100.00
2023-05-15T15:11:56.389Z,100.00
2023-05-15T15:14:23.229Z,100.00
2023-05-15T15:16:50.230Z,100.00
2023-05-15T15:19:19.932Z,100.00
2023-05-15T15:21:48.138Z,100.00
2023-05-15T15:24:15.337Z,100.00
2023-05-15T15:26:42.529Z,100.00
2023-05-15T15:29:09.304Z,100.00
2023-05-15T15:31:36.181Z,100.00
2023-05-15T15:34:05.321Z,100.00
2023-05-15T15:36:32.857Z,100.00
2023-05-15T15:38:59.722Z,100.00
2023-05-15T15:41:26.578Z,100.00
2023-05-15T15:43:54.000Z,100.00
2023-05-15T15:46:25.054Z,100.00
2023-05-15T15:48:52.186Z,100.00
2023-05-15T15:51:19.105Z,100.00
2023-05-15T15:53:46.283Z,100.00
2023-05-15T15:56:13.105Z,100.00
2023-05-15T15:58:40.220Z,100.00
2023-05-15T16:01:08.017Z,100.00
2023-05-15T16:03:35.148Z,100.00
2023-05-15T16:06:03.450Z,100.00
2023-05-15T16:08:30.187Z,100.00
2023-05-15T16:10:57.237Z,100.00
2023-05-15T16:13:24.051Z,100.00
2023-05-15T16:15:50.929Z,100.00
2023-05-15T16:18:20.210Z,100.00
2023-05-15T16:20:48.015Z,100.00
2023-05-15T16:23:18.027Z,100.00
2023-05-15T16:25:44.997Z,100.00
2023-05-15T16:28:12.217Z,100.00
2023-05-15T16:33:09.155Z,100.00
2023-05-15T16:35:39.346Z,100.00
2023-05-15T16:38:06.171Z,100.00
2023-05-15T16:40:33.238Z,100.00
2023-05-15T16:43:00.148Z,100.00
2023-05-15T16:45:27.085Z,100.00
2023-05-15T16:47:54.360Z,100.00
2023-05-15T16:50:21.268Z,100.00
2023-05-15T16:52:48.963Z,100.00
2023-05-15T16:55:19.473Z,100.00
2023-05-15T16:57:46.823Z,100.00
2023-05-15T17:00:15.971Z,100.00
2023-05-15T17:02:44.059Z,100.00
2023-05-15T17:05:11.794Z,100.00
2023-05-15T17:07:39.063Z,100.00
2023-05-15T17:10:07.865Z,100.00
2023-05-15T17:12:35.265Z,100.00
2023-05-15T17:15:03.043Z,100.00
2023-05-15T17:17:29.929Z,100.00
2023-05-15T17:19:57.307Z,100.00
2023-05-15T17:22:24.306Z,100.00
2023-05-15T17:24:52.190Z,100.00
2023-05-15T17:27:19.628Z,100.00
2023-05-15T17:29:48.021Z,100.00
2023-05-15T17:32:16.803Z,100.00
2023-05-15T17:34:45.028Z,100.00
2023-05-15T17:37:11.994Z,100.00
2023-05-15T17:39:39.045Z,100.00
2023-05-15T17:42:08.381Z,100.00
2023-05-15T17:44:35.102Z,100.00
2023-05-15T17:47:02.016Z,100.00
2023-05-15T17:49:29.826Z,100.00
2023-05-15T17:51:56.737Z,100.00
2023-05-15T17:54:37.634Z,100.00
2023-05-15T17:57:04.959Z,100.00
2023-05-15T17:59:31.820Z,100.00
2023-05-15T18:01:59.330Z,100.00
2023-05-15T18:04:26.244Z,100.00
2023-05-15T18:06:53.082Z,100.00
2023-05-15T18:09:24.268Z,100.00
2023-05-15T18:11:51.867Z,100.00
2023-05-15T18:14:19.383Z,100.00
2023-05-15T18:16:46.148Z,100.00
2023-05-15T18:19:12.968Z,100.00
2023-05-15T18:21:39.869Z,100.00
2023-05-15T18:24:06.885Z,100.00
2023-05-15T18:26:33.755Z,100.00
2023-05-15T18:29:00.560Z,100.00
2023-05-15T18:31:27.655Z,100.00
2023-05-15T18:33:54.439Z,100.00
2023-05-15T18:36:21.240Z,100.00
2023-05-15T18:38:47.965Z,100.00
2023-05-15T18:41:14.978Z,100.00
2023-05-15T18:43:42.135Z,100.00
2023-05-15T18:46:09.012Z,100.00
2023-05-15T18:48:35.824Z,100.00
2023-05-15T18:51:02.788Z,100.00
2023-05-15T18:53:33.475Z,100.00
2023-05-15T18:56:08.300Z,100.00
2023-05-15T18:58:50.331Z,100.00
2023-05-15T19:01:34.167Z,100.00
2023-05-15T19:04:01.041Z,100.00
2023-05-15T19:06:28.185Z,100.00
2023-05-15T19:08:55.124Z,100.00
2023-05-15T19:14:25.116Z,100.00
2023-05-15T19:16:52.423Z,100.00
2023-05-15T19:19:19.532Z,100.00
2023-05-15T19:21:47.582Z,100.00
2023-05-15T19:24:14.462Z,100.00
2023-05-15T19:26:42.127Z,100.00
2023-05-15T19:29:09.082Z,100.00
2023-05-15T19:31:38.197Z,100.00
2023-05-15T19:34:05.138Z,100.00
2023-05-15T19:36:31.848Z,100.00
2023-05-15T19:38:58.759Z,100.00
2023-05-15T19:41:25.725Z,100.00
2023-05-15T19:43:54.415Z,100.00
2023-05-15T19:46:21.244Z,100.00
2023-05-15T19:48:50.428Z,100.00
2023-05-15T19:51:17.745Z,100.00
2023-05-15T19:53:44.928Z,100.00
2023-05-15T19:56:13.737Z,100.00
2023-05-15T19:58:40.569Z,100.00
2023-05-15T20:01:08.358Z,100.00
2023-05-15T20:03:35.498Z,100.00
2023-05-15T20:06:02.930Z,100.00
2023-05-15T20:08:29.810Z,100.00
2023-05-15T20:10:57.275Z,100.00
2023-05-15T20:13:24.783Z,100.00
2023-05-15T20:15:57.266Z,100.00
2023-05-15T20:18:28.710Z,100.00
2023-05-15T20:20:56.121Z,100.00
2023-05-15T20:23:23.260Z,100.00
2023-05-15T20:25:51.449Z,100.00
2023-05-15T20:53:49.969Z,100.00
2023-05-15T20:56:16.851Z,100.00
2023-05-15T20:58:43.563Z,100.00
2023-05-15T21:01:10.408Z,100.00
2023-05-15T21:03:37.563Z,100.00
2023-05-15T21:06:04.782Z,100.00
2023-05-15T21:08:34.027Z,100.00
2023-05-15T21:11:01.868Z,100.00
2023-05-15T21:13:28.933Z,100.00
2023-05-15T21:15:55.991Z,100.00
2023-05-15T21:18:22.725Z,100.00
2023-05-15T21:20:49.455Z,100.00
2023-05-15T21:23:16.703Z,100.00
2023-05-15T21:25:44.121Z,100.00
2023-05-15T21:28:11.329Z,100.00
2023-05-15T21:30:38.418Z,100.00
2023-05-15T21:33:05.447Z,100.00
2023-05-15T21:35:32.374Z,100.00
2023-05-15T21:38:00.503Z,100.00
2023-05-15T21:40:30.303Z,100.00
2023-05-15T21:42:57.257Z,100.00
2023-05-15T21:45:24.191Z,100.00
2023-05-15T21:47:51.096Z,100.00
2023-05-15T21:50:18.116Z,100.00
2023-05-15T21:52:44.968Z,100.00
2023-05-15T21:55:16.041Z,100.00
2023-05-15T21:57:45.659Z,100.00
2023-05-15T22:00:14.082Z,100.00
2023-05-15T22:02:41.081Z,100.00
2023-05-15T22:05:08.699Z,100.00
2023-05-15T22:07:35.636Z,100.00
2023-05-15T22:10:03.773Z,100.00
2023-05-15T22:12:32.307Z,100.00
2023-05-15T22:15:00.011Z,100.00
2023-05-15T22:17:30.771Z,100.00
2023-05-15T22:20:08.299Z,100.00
2023-05-15T22:22:36.123Z,100.00
2023-05-15T22:25:03.505Z,100.00
2023-05-15T22:27:30.467Z,100.00
2023-05-15T22:29:57.392Z,100.00
2023-05-15T22:32:25.132Z,100.00
2023-05-15T22:34:52.144Z,100.00
2023-05-15T22:37:19.310Z,100.00
2023-05-15T22:39:46.388Z,100.00
2023-05-15T22:42:13.575Z,100.00
2023-05-15T22:44:40.403Z,100.00
2023-05-15T22:47:08.035Z,100.00
2023-05-15T22:49:34.945Z,100.00
2023-05-15T22:52:01.911Z,100.00
2023-05-15T22:54:28.678Z,100.00
2023-05-15T22:56:55.405Z,100.00
2023-05-15T22:59:22.493Z,100.00
2023-05-15T23:01:50.160Z,100.00
2023-05-15T23:04:17.550Z,100.00
2023-05-15T23:06:44.693Z,100.00
2023-05-15T23:09:11.863Z,100.00
2023-05-15T23:11:38.873Z,100.00
2023-05-15T23:14:08.385Z,100.00
2023-05-15T23:16:35.751Z,100.00
2023-05-15T23:19:03.533Z,100.00
2023-05-15T23:21:30.323Z,100.00
2023-05-15T23:24:01.638Z,100.00
2023-05-15T23:26:28.688Z,100.00
2023-05-15T23:28:58.455Z,100.00
2023-05-15T23:31:26.338Z,100.00
2023-05-15T23:33:53.290Z,100.00
2023-05-15T23:36:20.256Z,100.00
2023-05-15T23:38:47.041Z,100.00
2023-05-15T23:41:14.329Z,100.00
2023-05-15T23:43:41.155Z,100.00
2023-05-15T23:46:10.750Z,100.00
2023-05-15T23:48:37.660Z,100.00
2023-05-15T23:51:04.806Z,100.00
2023-05-15T23:53:31.841Z,100.00
2023-05-15T23:55:58.628Z,100.00
2023-05-15T23:58:25.631Z,100.00
